Time;durP1;ratioP1;P1;durP2;ratioP2;P2;SDS_P1;SDS_P2;PMS_P1;PMS_P2;Temp;Humidity;BMP_temperature;BMP_pressure;BME280_temperature;BME280_humidity;BME280_pressure;Samples;Min_cycle;Max_cycle;Signal;HPM_P1;HPM_P2
2022/09/25 02:54:45;;;;;;;2.90;1.25;;;;;;;;;;5048488;28;20414;-62
2022/09/25 02:57:14;;;;;;;2.10;1.58;;;;;;;;;;5046514;28;20113;-62
2022/09/25 02:59:45;;;;;;;3.25;1.35;;;;;;;;;;5037980;28;20096;-62
2022/09/25 03:02:11;;;;;;;5.50;1.40;;;;;;;;;;5044915;28;20124;-62
2022/09/25 03:04:38;;;;;;;4.97;1.58;;;;;;;;;;5047016;28;20225;-62
2022/09/25 03:07:05;;;;;;;8.60;2.40;;;;;;;;;;5045597;28;20045;-62
2022/09/25 03:09:34;;;;;;;5.93;1.70;;;;;;;;;;5040621;28;20053;-62
2022/09/25 03:12:02;;;;;;;6.38;1.70;;;;;;;;;;5041117;28;20076;-62
2022/09/25 03:14:28;;;;;;;4.18;1.63;;;;;;;;;;5049396;28;20037;-62
2022/09/25 03:16:56;;;;;;;4.90;1.52;;;;;;;;;;5049850;28;20486;-62
2022/09/25 03:19:22;;;;;;;2.80;1.70;;;;;;;;;;5050396;28;20052;-62
2022/09/25 03:21:49;;;;;;;7.53;2.03;;;;;;;;;;5048011;28;20128;-62
2022/09/25 03:24:16;;;;;;;4.22;1.42;;;;;;;;;;5038772;28;20088;-62
2022/09/25 03:26:42;;;;;;;4.32;1.90;;;;;;;;;;5050829;28;20065;-62
2022/09/25 03:29:08;;;;;;;5.28;1.83;;;;;;;;;;5046997;28;20136;-62
2022/09/25 03:31:34;;;;;;;5.85;2.15;;;;;;;;;;5045437;28;20033;-62
2022/09/25 03:34:01;;;;;;;2.45;1.10;;;;;;;;;;5028475;28;20044;-62
2022/09/25 03:36:28;;;;;;;4.72;1.33;;;;;;;;;;5046009;28;20450;-62
2022/09/25 03:38:58;;;;;;;2.45;0.88;;;;;;;;;;5036176;28;20053;-62
2022/09/25 03:41:26;;;;;;;4.55;1.13;;;;;;;;;;5039881;28;20041;-62
2022/09/25 03:43:52;;;;;;;3.28;1.13;;;;;;;;;;5048499;28;20092;-62
2022/09/25 03:46:26;;;;;;;4.88;1.45;;;;;;;;;;5044861;28;20456;-62
2022/09/25 03:48:53;;;;;;;1.92;1.17;;;;;;;;;;5047614;28;20444;-62
2022/09/25 03:51:20;;;;;;;2.50;1.42;;;;;;;;;;5039111;28;20045;-62
2022/09/25 03:53:46;;;;;;;3.05;1.27;;;;;;;;;;5061907;28;20186;-62
2022/09/25 03:56:14;;;;;;;3.67;1.15;;;;;;;;;;5059148;28;20064;-62
2022/09/25 03:58:40;;;;;;;2.60;1.30;;;;;;;;;;5068758;28;20055;-62
2022/09/25 04:01:06;;;;;;;4.43;1.40;;;;;;;;;;5084212;28;20084;-62
2022/09/25 04:03:33;;;;;;;2.15;1.20;;;;;;;;;;5057493;28;20044;-62
2022/09/25 04:06:01;;;;;;;5.13;0.90;;;;;;;;;;5066561;28;20056;-62
2022/09/25 04:08:27;;;;;;;4.68;1.27;;;;;;;;;;5063961;28;20541;-62
2022/09/25 04:10:55;;;;;;;3.00;0.93;;;;;;;;;;5066139;28;20050;-62
2022/09/25 04:13:25;;;;;;;4.28;1.38;;;;;;;;;;5067490;28;20135;-62
2022/09/25 04:15:51;;;;;;;6.55;2.08;;;;;;;;;;5068342;28;20164;-62
2022/09/25 04:18:17;;;;;;;4.10;1.10;;;;;;;;;;5061227;28;20044;-62
2022/09/25 04:20:44;;;;;;;3.63;1.83;;;;;;;;;;5065936;28;20084;-62
2022/09/25 04:23:10;;;;;;;4.50;1.10;;;;;;;;;;5065149;28;20048;-62
2022/09/25 04:25:36;;;;;;;3.10;1.08;;;;;;;;;;5065665;28;20044;-62
2022/09/25 04:28:03;;;;;;;3.60;1.20;;;;;;;;;;5067980;28;20040;-62
2022/09/25 04:30:29;;;;;;;1.67;0.90;;;;;;;;;;5056393;28;20052;-62
2022/09/25 04:35:40;;;;;;;2.28;1.10;;;;;;;;;;5062252;28;20048;-62
2022/09/25 04:38:08;;;;;;;4.68;1.33;;;;;;;;;;5066777;28;20485;-62
2022/09/25 04:40:34;;;;;;;2.63;1.27;;;;;;;;;;5066766;28;20123;-62
2022/09/25 04:43:01;;;;;;;3.88;1.17;;;;;;;;;;5067429;28;20044;-62
2022/09/25 04:45:29;;;;;;;5.32;1.05;;;;;;;;;;5055043;28;20044;-62
2022/09/25 04:47:58;;;;;;;4.88;1.67;;;;;;;;;;5060272;28;20413;-62
2022/09/25 04:50:24;;;;;;;2.70;1.67;;;;;;;;;;5068988;28;20049;-62
2022/09/25 04:52:51;;;;;;;3.28;1.38;;;;;;;;;;5068067;28;20477;-62
2022/09/25 04:55:17;;;;;;;3.10;1.73;;;;;;;;;;5063930;28;20060;-62
2022/09/25 04:57:44;;;;;;;5.03;1.33;;;;;;;;;;5053179;28;20056;-62
2022/09/25 05:00:10;;;;;;;8.57;2.22;;;;;;;;;;5066059;28;20045;-62
2022/09/25 05:02:36;;;;;;;5.50;1.40;;;;;;;;;;5061439;28;20498;-62
2022/09/25 05:05:02;;;;;;;10.45;1.50;;;;;;;;;;5065704;28;20052;-62
2022/09/25 05:07:29;;;;;;;3.63;1.90;;;;;;;;;;5067633;28;20037;-62
2022/09/25 05:09:55;;;;;;;4.43;1.70;;;;;;;;;;5057428;28;20045;-62
2022/09/25 05:12:21;;;;;;;2.97;1.40;;;;;;;;;;5058058;28;20060;-62
2022/09/25 05:14:47;;;;;;;2.53;1.20;;;;;;;;;;5059488;28;20137;-62
2022/09/25 05:17:13;;;;;;;5.63;1.40;;;;;;;;;;5059933;28;20114;-62
2022/09/25 05:19:39;;;;;;;2.83;1.40;;;;;;;;;;5060430;28;20045;-62
2022/09/25 05:22:06;;;;;;;3.15;1.50;;;;;;;;;;5055757;28;20075;-62
2022/09/25 05:24:32;;;;;;;2.25;1.20;;;;;;;;;;5066174;28;20163;-62
2022/09/25 05:26:58;;;;;;;3.67;1.63;;;;;;;;;;5065930;28;20123;-62
2022/09/25 05:29:25;;;;;;;4.40;1.73;;;;;;;;;;5063241;28;20431;-62
2022/09/25 05:31:51;;;;;;;2.65;1.13;;;;;;;;;;5059747;28;20178;-62
2022/09/25 05:34:17;;;;;;;4.93;2.13;;;;;;;;;;5064075;28;20066;-62
2022/09/25 05:36:43;;;;;;;3.05;1.20;;;;;;;;;;5064622;28;20183;-62
2022/09/25 05:39:10;;;;;;;5.00;1.58;;;;;;;;;;5060661;28;21081;-62
2022/09/25 05:41:36;;;;;;;6.07;1.67;;;;;;;;;;5064878;28;20123;-62
2022/09/25 05:44:08;;;;;;;4.95;1.70;;;;;;;;;;5062305;28;20502;-62
2022/09/25 05:46:37;;;;;;;6.40;1.80;;;;;;;;;;5065478;28;20513;-62
2022/09/25 05:49:04;;;;;;;3.30;1.60;;;;;;;;;;5067372;28;20075;-62
2022/09/25 05:51:30;;;;;;;3.80;1.63;;;;;;;;;;5067111;28;20040;-62
2022/09/25 05:53:56;;;;;;;4.28;1.35;;;;;;;;;;5061112;28;20076;-62
2022/09/25 05:56:23;;;;;;;2.67;1.35;;;;;;;;;;5057837;28;20053;-62
2022/09/25 05:58:50;;;;;;;1.67;0.90;;;;;;;;;;5058238;28;20051;-62
2022/09/25 06:01:16;;;;;;;6.18;2.28;;;;;;;;;;5061541;28;20541;-62
2022/09/25 06:03:42;;;;;;;4.45;1.13;;;;;;;;;;5058703;28;20037;-62
2022/09/25 06:06:08;;;;;;;4.18;1.25;;;;;;;;;;5062961;28;20512;-62
2022/09/25 06:08:34;;;;;;;2.90;1.40;;;;;;;;;;5048411;28;20051;-62
2022/09/25 06:11:01;;;;;;;2.00;1.30;;;;;;;;;;5052845;28;20123;-62
2022/09/25 06:13:30;;;;;;;2.70;1.15;;;;;;;;;;5068432;28;20040;-62
2022/09/25 06:15:57;;;;;;;2.55;1.20;;;;;;;;;;5089468;28;20044;-62
2022/09/25 06:18:23;;;;;;;4.18;1.70;;;;;;;;;;5077617;28;20421;-62
2022/09/25 06:20:50;;;;;;;5.63;1.90;;;;;;;;;;5068914;28;20447;-62
2022/09/25 06:23:17;;;;;;;3.63;1.85;;;;;;;;;;5067527;28;20122;-62
2022/09/25 06:25:43;;;;;;;2.03;1.20;;;;;;;;;;5068087;28;20052;-62
2022/09/25 06:28:11;;;;;;;2.70;1.45;;;;;;;;;;5070022;28;20048;-62
2022/09/25 06:30:37;;;;;;;6.22;1.77;;;;;;;;;;5071072;28;20055;-62
2022/09/25 06:33:06;;;;;;;3.63;1.40;;;;;;;;;;5073291;28;20179;-62
2022/09/25 06:35:35;;;;;;;3.58;1.73;;;;;;;;;;5065170;28;20570;-62
2022/09/25 06:38:02;;;;;;;3.22;2.05;;;;;;;;;;5063927;28;20072;-62
2022/09/25 06:40:30;;;;;;;2.58;1.40;;;;;;;;;;5062591;28;20136;-62
2022/09/25 06:42:57;;;;;;;16.90;1.80;;;;;;;;;;5065568;28;20071;-62
2022/09/25 06:45:23;;;;;;;6.15;2.08;;;;;;;;;;5068873;28;20129;-62
2022/09/25 06:47:49;;;;;;;3.20;1.70;;;;;;;;;;5063749;28;20071;-62
2022/09/25 06:50:15;;;;;;;8.73;2.03;;;;;;;;;;5071279;28;20628;-62
2022/09/25 06:52:42;;;;;;;4.78;1.65;;;;;;;;;;5070300;28;20480;-62
2022/09/25 06:55:09;;;;;;;5.10;1.67;;;;;;;;;;5068656;28;20120;-62
2022/09/25 06:57:36;;;;;;;3.75;1.70;;;;;;;;;;5071847;28;20444;-62
2022/09/25 07:00:06;;;;;;;3.47;1.90;;;;;;;;;;5059109;28;20106;-62
2022/09/25 07:05:17;;;;;;;3.78;1.50;;;;;;;;;;5070994;28;20127;-62
2022/09/25 07:07:45;;;;;;;5.93;2.05;;;;;;;;;;5072037;28;20057;-62
2022/09/25 07:10:11;;;;;;;3.88;1.92;;;;;;;;;;5067924;28;20044;-62
2022/09/25 07:12:38;;;;;;;3.65;1.73;;;;;;;;;;5068106;28;20122;-62
2022/09/25 07:15:05;;;;;;;3.15;2.13;;;;;;;;;;5067113;28;20479;-62
2022/09/25 07:17:31;;;;;;;3.80;1.73;;;;;;;;;;5069586;28;20524;-62
2022/09/25 07:19:57;;;;;;;2.85;1.45;;;;;;;;;;5066969;28;20045;-62
2022/09/25 07:22:23;;;;;;;2.78;1.73;;;;;;;;;;5068149;28;20052;-62
2022/09/25 07:24:49;;;;;;;4.00;1.75;;;;;;;;;;5066046;28;20509;-62
2022/09/25 07:27:15;;;;;;;4.75;1.55;;;;;;;;;;5070559;28;20049;-62
2022/09/25 07:29:41;;;;;;;3.20;1.52;;;;;;;;;;5063433;28;20036;-62
2022/09/25 07:32:09;;;;;;;3.83;2.75;;;;;;;;;;5075917;28;20054;-62
2022/09/25 07:34:36;;;;;;;3.67;1.90;;;;;;;;;;5083939;28;20037;-62
2022/09/25 07:37:02;;;;;;;3.30;2.13;;;;;;;;;;5073546;28;20071;-62
2022/09/25 07:39:29;;;;;;;5.60;2.05;;;;;;;;;;5078492;28;20158;-62
2022/09/25 07:41:55;;;;;;;3.70;1.98;;;;;;;;;;5078072;28;20486;-62
2022/09/25 07:44:21;;;;;;;7.45;2.05;;;;;;;;;;5076049;28;20052;-62
2022/09/25 07:46:47;;;;;;;4.78;1.48;;;;;;;;;;5072094;28;20186;-62
2022/09/25 07:49:13;;;;;;;5.70;1.35;;;;;;;;;;5080630;28;20040;-62
2022/09/25 07:51:39;;;;;;;3.67;2.05;;;;;;;;;;5073158;28;20484;-62
2022/09/25 07:54:06;;;;;;;5.50;2.50;;;;;;;;;;5078785;28;20512;-62
2022/09/25 07:56:33;;;;;;;4.22;1.98;;;;;;;;;;5074169;28;20048;-62
2022/09/25 07:58:59;;;;;;;4.15;1.80;;;;;;;;;;5072665;28;20079;-62
2022/09/25 08:01:25;;;;;;;5.25;2.42;;;;;;;;;;5070640;28;20040;-62
2022/09/25 08:03:52;;;;;;;4.22;2.30;;;;;;;;;;5072235;28;20045;-62
2022/09/25 08:06:19;;;;;;;6.72;2.30;;;;;;;;;;5074724;28;20041;-62
2022/09/25 08:08:45;;;;;;;5.57;2.10;;;;;;;;;;5067086;28;20048;-62
2022/09/25 08:11:12;;;;;;;6.28;2.35;;;;;;;;;;5067089;28;20431;-62
2022/09/25 08:13:39;;;;;;;3.95;1.60;;;;;;;;;;5065921;28;20083;-62
2022/09/25 08:16:10;;;;;;;6.18;1.75;;;;;;;;;;5063447;28;20083;-62
2022/09/25 08:18:37;;;;;;;3.08;1.17;;;;;;;;;;5064721;28;20040;-62
2022/09/25 08:21:04;;;;;;;6.35;1.83;;;;;;;;;;5066112;28;20080;-62
2022/09/25 08:23:31;;;;;;;1.95;1.10;;;;;;;;;;5065178;28;20525;-62
2022/09/25 08:25:58;;;;;;;2.05;1.10;;;;;;;;;;5065845;28;20056;-62
2022/09/25 08:28:24;;;;;;;3.30;1.20;;;;;;;;;;5066468;28;20044;-62
2022/09/25 08:30:50;;;;;;;2.88;1.17;;;;;;;;;;5067306;28;20052;-62
2022/09/25 08:33:17;;;;;;;4.68;1.27;;;;;;;;;;5077008;28;20040;-62
2022/09/25 08:35:43;;;;;;;3.78;1.42;;;;;;;;;;5082684;28;20533;-62
2022/09/25 08:38:12;;;;;;;4.25;1.67;;;;;;;;;;5070035;28;20410;-62
2022/09/25 08:40:58;;;;;;;4.85;1.60;;;;;;;;;;5077395;28;20066;-62
2022/09/25 08:43:25;;;;;;;5.47;1.80;;;;;;;;;;5075731;28;20048;-62
2022/09/25 08:49:08;;;;;;;9.23;1.52;;;;;;;;;;5062111;28;20086;-62
2022/09/25 08:51:40;;;;;;;6.70;1.73;;;;;;;;;;5071064;28;20445;-62
2022/09/25 08:54:06;;;;;;;2.83;1.73;;;;;;;;;;5078724;28;20466;-62
2022/09/25 08:56:35;;;;;;;6.18;2.30;;;;;;;;;;5073028;28;20082;-62
2022/09/25 08:59:09;;;;;;;3.60;1.52;;;;;;;;;;5074896;28;20135;-62
2022/09/25 09:01:44;;;;;;;3.28;1.85;;;;;;;;;;5071387;28;20051;-62
2022/09/25 09:04:24;;;;;;;4.88;1.45;;;;;;;;;;5073812;28;20089;-62
2022/09/25 09:06:53;;;;;;;4.80;1.55;;;;;;;;;;5066628;28;20132;-62
2022/09/25 09:09:37;;;;;;;2.88;1.30;;;;;;;;;;5071668;28;20131;-62
2022/09/25 09:12:07;;;;;;;4.43;1.20;;;;;;;;;;5068772;28;20041;-62
2022/09/25 09:14:38;;;;;;;4.40;1.50;;;;;;;;;;5077210;28;20048;-62
2022/09/25 09:17:16;;;;;;;3.20;1.05;;;;;;;;;;5071725;28;20053;-62
2022/09/25 09:19:44;;;;;;;5.28;1.65;;;;;;;;;;5079977;28;20044;-62
2022/09/25 09:22:10;;;;;;;3.13;1.00;;;;;;;;;;5078825;28;20119;-62
2022/09/25 09:24:55;;;;;;;2.42;0.80;;;;;;;;;;5074688;28;20078;-62
2022/09/25 09:27:51;;;;;;;2.20;0.88;;;;;;;;;;5065696;28;20047;-62
2022/09/25 09:30:27;;;;;;;1.80;0.95;;;;;;;;;;5039011;28;20041;-62
2022/09/25 09:33:00;;;;;;;2.85;1.13;;;;;;;;;;5061513;28;20090;-62
2022/09/25 09:35:38;;;;;;;4.05;1.08;;;;;;;;;;5072060;28;20051;-62
2022/09/25 09:38:10;;;;;;;1.33;0.90;;;;;;;;;;5076395;28;20045;-62
2022/09/25 09:40:40;;;;;;;3.72;0.85;;;;;;;;;;5069456;28;20594;-62
2022/09/25 09:43:18;;;;;;;4.97;0.90;;;;;;;;;;5060845;28;20036;-62
2022/09/25 09:45:47;;;;;;;2.15;0.82;;;;;;;;;;5075092;28;20032;-62
2022/09/25 09:48:20;;;;;;;3.20;1.10;;;;;;;;;;5079409;28;20055;-62
2022/09/25 09:50:50;;;;;;;4.53;1.20;;;;;;;;;;5064960;28;20040;-62
2022/09/25 09:53:28;;;;;;;3.78;1.10;;;;;;;;;;5078857;28;20072;-62
2022/09/25 09:55:57;;;;;;;2.28;0.73;;;;;;;;;;5064502;28;20466;-62
2022/09/25 09:58:28;;;;;;;4.90;1.48;;;;;;;;;;5072811;28;20048;-62
2022/09/25 10:00:54;;;;;;;3.28;1.02;;;;;;;;;;5063347;28;20059;-62
2022/09/25 10:03:23;;;;;;;3.60;1.30;;;;;;;;;;5078551;28;20056;-62
2022/09/25 10:05:50;;;;;;;12.73;1.85;;;;;;;;;;5076826;28;20036;-62
2022/09/25 10:08:17;;;;;;;3.53;1.05;;;;;;;;;;5071313;28;20510;-62
2022/09/25 10:10:45;;;;;;;2.53;0.90;;;;;;;;;;5074624;28;20171;-62
2022/09/25 10:13:19;;;;;;;4.10;1.20;;;;;;;;;;5078481;28;20040;-62
2022/09/25 10:15:57;;;;;;;1.60;0.70;;;;;;;;;;5057224;28;20266;-62
2022/09/25 10:18:25;;;;;;;4.25;1.40;;;;;;;;;;5080654;28;20135;-62
2022/09/25 10:20:58;;;;;;;4.25;1.20;;;;;;;;;;5072251;28;20059;-62
2022/09/25 10:23:46;;;;;;;3.47;1.10;;;;;;;;;;5070220;28;20040;-62
2022/09/25 10:26:35;;;;;;;2.78;1.20;;;;;;;;;;5070391;28;20048;-62
2022/09/25 10:29:03;;;;;;;1.80;1.02;;;;;;;;;;5068872;28;20560;-62
2022/09/25 10:31:32;;;;;;;3.95;1.30;;;;;;;;;;5066919;28;20049;-62
2022/09/25 10:34:16;;;;;;;2.03;0.82;;;;;;;;;;5063054;28;20239;-62
2022/09/25 10:36:44;;;;;;;1.20;0.85;;;;;;;;;;5068986;28;20056;-62
2022/09/25 10:39:29;;;;;;;3.30;0.95;;;;;;;;;;5071819;28;20524;-62
2022/09/25 10:41:57;;;;;;;2.92;1.13;;;;;;;;;;5074664;28;20150;-62
2022/09/25 10:44:32;;;;;;;10.15;1.90;;;;;;;;;;5069475;28;20135;-62
2022/09/25 10:50:15;;;;;;;5.43;1.17;;;;;;;;;;5072380;28;20051;-62
2022/09/25 10:52:51;;;;;;;3.25;1.58;;;;;;;;;;5073071;28;20075;-62
2022/09/25 10:55:29;;;;;;;3.53;1.50;;;;;;;;;;5088529;28;20410;-62
2022/09/25 10:58:04;;;;;;;2.70;1.13;;;;;;;;;;5081237;28;20044;-62
2022/09/25 11:00:35;;;;;;;4.63;1.10;;;;;;;;;;5077990;28;20117;-62
2022/09/25 11:03:02;;;;;;;3.08;1.33;;;;;;;;;;5072567;28;20059;-62
2022/09/25 11:05:30;;;;;;;3.90;0.95;;;;;;;;;;5076198;28;20401;-62
2022/09/25 11:07:58;;;;;;;3.22;0.85;;;;;;;;;;5086075;28;20051;-62
2022/09/25 11:10:29;;;;;;;2.25;1.05;;;;;;;;;;5078062;28;20105;-62
2022/09/25 11:12:56;;;;;;;2.47;0.70;;;;;;;;;;5083999;28;20115;-62
2022/09/25 11:15:24;;;;;;;4.65;1.52;;;;;;;;;;5073259;28;20120;-62
2022/09/25 11:17:52;;;;;;;2.78;1.50;;;;;;;;;;5078119;28;20040;-62
2022/09/25 11:20:19;;;;;;;3.22;1.48;;;;;;;;;;5079012;28;20048;-62
2022/09/25 11:22:47;;;;;;;3.72;1.10;;;;;;;;;;5081514;28;20076;-62
2022/09/25 11:25:17;;;;;;;7.07;1.42;;;;;;;;;;5073114;28;20395;-62
2022/09/25 11:27:43;;;;;;;3.65;0.98;;;;;;;;;;5059767;28;20040;-62
2022/09/25 11:30:22;;;;;;;2.47;1.00;;;;;;;;;;5058746;28;20444;-62
2022/09/25 11:33:05;;;;;;;2.53;0.73;;;;;;;;;;5067895;28;20056;-62
2022/09/25 11:35:41;;;;;;;4.93;1.50;;;;;;;;;;5068540;28;20071;-62
2022/09/25 11:41:21;;;;;;;6.60;1.50;;;;;;;;;;5063637;28;20052;-62
2022/09/25 11:43:56;;;;;;;2.70;0.80;;;;;;;;;;5068341;28;20491;-62
2022/09/25 11:46:25;;;;;;;4.28;1.40;;;;;;;;;;5064302;28;20071;-62
2022/09/25 11:49:10;;;;;;;3.80;1.10;;;;;;;;;;5070108;28;20477;-62
2022/09/25 11:51:49;;;;;;;3.28;1.20;;;;;;;;;;5057492;28;20405;-62
2022/09/25 11:54:26;;;;;;;3.25;1.38;;;;;;;;;;5056173;28;20049;-62
2022/09/25 11:56:52;;;;;;;2.00;1.10;;;;;;;;;;5063993;28;20063;-62
2022/09/25 11:59:37;;;;;;;3.47;0.70;;;;;;;;;;5065679;28;20420;-62
2022/09/25 12:02:18;;;;;;;2.53;1.10;;;;;;;;;;5053368;28;20045;-60
2022/09/25 12:05:03;;;;;;;4.22;1.30;;;;;;;;;;5058872;28;20472;-60
2022/09/25 12:07:50;;;;;;;2.53;0.90;;;;;;;;;;5059608;28;20052;-62
2022/09/25 12:10:27;;;;;;;2.40;0.85;;;;;;;;;;5062543;28;20048;-62
2022/09/25 12:13:04;;;;;;;5.80;1.00;;;;;;;;;;5057473;28;20395;-62
2022/09/25 12:15:43;;;;;;;3.10;0.85;;;;;;;;;;5050172;28;20095;-62
2022/09/25 12:18:16;;;;;;;2.88;0.80;;;;;;;;;;5062612;28;20128;-62
2022/09/25 12:20:49;;;;;;;1.95;0.85;;;;;;;;;;5061297;28;20430;-62
2022/09/25 12:23:29;;;;;;;1.13;0.57;;;;;;;;;;5062631;28;20049;-62
2022/09/25 12:25:55;;;;;;;1.45;0.63;;;;;;;;;;5048568;28;20052;-62
2022/09/25 12:28:22;;;;;;;3.22;0.77;;;;;;;;;;5065069;28;20045;-62
2022/09/25 12:30:54;;;;;;;2.35;1.23;;;;;;;;;;5067265;28;20159;-62
2022/09/25 12:33:20;;;;;;;;;;;;;;;;;;5056641;28;20056;-62
2022/09/25 12:35:50;;;;;;;1.75;0.95;;;;;;;;;;5077399;28;19917;-62
2022/09/25 12:38:16;;;;;;;1.35;0.63;;;;;;;;;;5065636;28;20047;-62
2022/09/25 12:40:42;;;;;;;3.40;0.98;;;;;;;;;;5064149;28;20056;-62
2022/09/25 12:43:10;;;;;;;1.88;0.88;;;;;;;;;;5063997;28;20514;-62
2022/09/25 12:45:42;;;;;;;2.65;1.25;;;;;;;;;;5050656;28;20481;-62
2022/09/25 12:48:25;;;;;;;2.05;0.85;;;;;;;;;;5066963;28;20106;-62
2022/09/25 12:51:01;;;;;;;1.70;0.90;;;;;;;;;;5062511;28;20041;-62
2022/09/25 12:53:36;;;;;;;3.03;1.23;;;;;;;;;;5066840;28;20067;-62
2022/09/25 12:56:07;;;;;;;1.95;0.80;;;;;;;;;;5051417;28;20052;-62
2022/09/25 12:58:39;;;;;;;1.80;1.20;;;;;;;;;;5057360;28;20056;-62
2022/09/25 13:01:24;;;;;;;1.92;0.75;;;;;;;;;;5077539;28;20045;-62
2022/09/25 13:03:54;;;;;;;5.53;1.38;;;;;;;;;;5060904;28;20048;-62
2022/09/25 13:06:33;;;;;;;2.83;1.27;;;;;;;;;;5065982;28;20048;-62
2022/09/25 13:09:16;;;;;;;1.63;0.90;;;;;;;;;;5050240;28;20037;-62
2022/09/25 13:11:54;;;;;;;2.50;0.93;;;;;;;;;;5055448;28;20457;-62
2022/09/25 13:14:29;;;;;;;2.45;0.85;;;;;;;;;;5057868;28;20048;-62
2022/09/25 13:16:56;;;;;;;2.35;0.80;;;;;;;;;;5065601;28;20049;-62
2022/09/25 13:19:27;;;;;;;5.93;1.00;;;;;;;;;;5068597;28;20076;-62
2022/09/25 13:22:01;;;;;;;2.50;1.05;;;;;;;;;;5059872;28;20410;-62
2022/09/25 13:24:27;;;;;;;3.60;1.25;;;;;;;;;;5060652;28;20502;-62
2022/09/25 13:26:55;;;;;;;1.80;1.10;;;;;;;;;;5071643;28;20110;-62
2022/09/25 13:29:22;;;;;;;1.05;0.70;;;;;;;;;;5062866;28;20041;-62
2022/09/25 13:31:48;;;;;;;4.28;1.02;;;;;;;;;;5071424;28;20465;-62
2022/09/25 13:34:15;;;;;;;3.70;0.85;;;;;;;;;;5066288;28;20055;-62
2022/09/25 13:36:55;;;;;;;3.60;0.82;;;;;;;;;;5071567;28;20446;-62
2022/09/25 13:42:16;;;;;;;2.70;1.13;;;;;;;;;;5062663;28;20052;-62
2022/09/25 13:44:42;;;;;;;5.60;1.10;;;;;;;;;;5080438;28;20131;-62
2022/09/25 13:47:23;;;;;;;1.42;0.70;;;;;;;;;;5068973;28;20502;-62
2022/09/25 13:49:50;;;;;;;3.05;0.93;;;;;;;;;;5069923;28;20076;-62
2022/09/25 13:52:29;;;;;;;3.10;0.93;;;;;;;;;;5061457;28;20061;-62
2022/09/25 13:55:17;;;;;;;2.85;0.65;;;;;;;;;;5064127;28;20534;-62
2022/09/25 13:57:58;;;;;;;2.50;0.65;;;;;;;;;;5064624;28;20052;-62
2022/09/25 14:00:57;;;;;;;2.42;0.80;;;;;;;;;;5058941;28;20110;-62
2022/09/25 14:03:44;;;;;;;2.20;0.77;;;;;;;;;;5068818;28;20049;-62
2022/09/25 14:06:19;;;;;;;1.88;0.55;;;;;;;;;;5063482;28;20088;-62
2022/09/25 14:08:47;;;;;;;1.83;0.50;;;;;;;;;;5068721;28;20044;-62
2022/09/25 14:11:16;;;;;;;3.58;0.82;;;;;;;;;;5065873;28;20456;-62
2022/09/25 14:13:45;;;;;;;1.55;0.75;;;;;;;;;;5064653;28;20063;-62
2022/09/25 14:16:31;;;;;;;3.13;0.85;;;;;;;;;;5062268;28;20068;-62
2022/09/25 14:18:58;;;;;;;0.82;0.50;;;;;;;;;;5071360;28;20048;-62
2022/09/25 14:21:25;;;;;;;1.38;0.65;;;;;;;;;;5061063;28;20057;-62
2022/09/25 14:23:55;;;;;;;2.83;0.90;;;;;;;;;;5066253;28;20110;-62
2022/09/25 14:26:24;;;;;;;1.85;0.88;;;;;;;;;;5070053;28;20052;-62
2022/09/25 14:28:50;;;;;;;2.08;0.88;;;;;;;;;;5067474;28;20052;-62
2022/09/25 14:31:33;;;;;;;4.93;1.08;;;;;;;;;;5065603;28;20430;-62
2022/09/25 14:34:11;;;;;;;3.20;0.90;;;;;;;;;;5074551;28;20098;-62
2022/09/25 14:36:48;;;;;;;3.00;1.25;;;;;;;;;;5067232;28;20510;-62
2022/09/25 14:39:32;;;;;;;2.97;0.80;;;;;;;;;;5064103;28;20049;-62
2022/09/25 14:42:08;;;;;;;1.30;0.80;;;;;;;;;;5068921;28;20136;-62
2022/09/25 14:44:34;;;;;;;2.15;1.23;;;;;;;;;;5069019;28;20082;-62
2022/09/25 14:47:01;;;;;;;4.35;1.10;;;;;;;;;;5059990;28;20084;-62
2022/09/25 14:49:33;;;;;;;3.20;0.90;;;;;;;;;;5068273;28;20047;-62
2022/09/25 14:52:03;;;;;;;2.55;0.82;;;;;;;;;;5066453;28;20037;-62
2022/09/25 14:54:31;;;;;;;1.92;1.25;;;;;;;;;;5067961;28;20040;-62
2022/09/25 14:56:58;;;;;;;1.33;0.90;;;;;;;;;;5067019;28;20052;-62
2022/09/25 14:59:24;;;;;;;2.30;0.70;;;;;;;;;;5056194;28;20462;-62
2022/09/25 15:01:51;;;;;;;2.67;0.88;;;;;;;;;;5061812;28;20055;-62
2022/09/25 15:04:31;;;;;;;3.97;1.58;;;;;;;;;;5065349;28;20045;-62
2022/09/25 15:07:04;;;;;;;6.28;1.60;;;;;;;;;;5068594;28;20136;-62
2022/09/25 15:09:35;;;;;;;1.35;0.75;;;;;;;;;;5060524;28;20660;-62
2022/09/25 15:12:12;;;;;;;1.67;0.65;;;;;;;;;;5058778;28;20044;-62
2022/09/25 15:14:38;;;;;;;3.20;0.98;;;;;;;;;;5057484;28;20080;-62
2022/09/25 15:17:21;;;;;;;2.20;0.80;;;;;;;;;;5068537;28;20486;-62
2022/09/25 15:19:47;;;;;;;;;;;;;;;;;;5070097;28;20585;-62
2022/09/25 15:22:22;;;;;;;2.67;0.93;;;;;;;;;;5071117;28;19986;-62
2022/09/25 15:24:52;;;;;;;2.58;0.80;;;;;;;;;;5061806;28;20067;-62
2022/09/25 15:27:18;;;;;;;2.67;0.70;;;;;;;;;;5059300;28;20053;-62
2022/09/25 15:29:45;;;;;;;3.63;0.80;;;;;;;;;;5060209;28;20072;-61
2022/09/25 15:32:37;;;;;;;5.35;1.55;;;;;;;;;;5060428;28;20045;-62
2022/09/25 15:35:14;;;;;;;4.55;2.08;;;;;;;;;;5057970;28;20133;-62
2022/09/25 15:37:41;;;;;;;5.57;1.25;;;;;;;;;;5068501;28;20076;-62
2022/09/25 15:40:16;;;;;;;1.55;0.60;;;;;;;;;;5055328;28;20083;-62
2022/09/25 15:42:46;;;;;;;2.55;0.80;;;;;;;;;;5065405;28;20052;-62
2022/09/25 15:45:27;;;;;;;2.97;0.93;;;;;;;;;;5067705;28;20122;-62
2022/09/25 15:47:53;;;;;;;4.03;1.02;;;;;;;;;;5065174;28;20056;-62
2022/09/25 15:50:22;;;;;;;0.98;0.60;;;;;;;;;;5062117;28;20044;-62
2022/09/25 15:52:51;;;;;;;1.95;0.90;;;;;;;;;;5053783;28;20048;-62
2022/09/25 15:55:19;;;;;;;4.72;0.88;;;;;;;;;;5061608;28;20060;-62
2022/09/25 15:57:45;;;;;;;1.85;0.77;;;;;;;;;;5061669;28;20498;-62
2022/09/25 16:06:02;;;;;;;3.33;0.70;;;;;;;;;;5054804;28;20045;-62
2022/09/25 16:08:30;;;;;;;3.90;0.93;;;;;;;;;;5064602;28;20044;-62
2022/09/25 16:11:06;;;;;;;1.30;0.63;;;;;;;;;;5064840;28;20411;-62
2022/09/25 16:13:33;;;;;;;3.15;0.80;;;;;;;;;;5068469;28;20044;-62
2022/09/25 16:16:00;;;;;;;2.45;0.80;;;;;;;;;;5068795;28;20106;-62
2022/09/25 16:18:37;;;;;;;3.85;1.08;;;;;;;;;;5069803;28;20610;-62
2022/09/25 16:21:12;;;;;;;1.73;0.60;;;;;;;;;;5061387;28;20048;-62
2022/09/25 16:23:40;;;;;;;3.85;0.95;;;;;;;;;;5063103;28;20457;-62
2022/09/25 16:26:14;;;;;;;2.95;1.33;;;;;;;;;;5067903;28;20055;-62
2022/09/25 16:28:48;;;;;;;3.42;0.90;;;;;;;;;;5066014;28;20383;-62
2022/09/25 16:31:19;;;;;;;4.18;1.40;;;;;;;;;;5064870;28;20041;-62
2022/09/25 16:33:49;;;;;;;1.55;0.50;;;;;;;;;;5052916;28;20049;-62
2022/09/25 16:36:17;;;;;;;1.55;0.90;;;;;;;;;;5061115;28;20105;-62
2022/09/25 16:39:01;;;;;;;2.22;0.93;;;;;;;;;;5064554;28;20135;-62
2022/09/25 16:41:27;;;;;;;2.13;0.90;;;;;;;;;;5065763;28;20095;-62
2022/09/25 16:44:11;;;;;;;2.00;1.00;;;;;;;;;;5057736;28;20049;-62
2022/09/25 16:46:37;;;;;;;2.17;0.90;;;;;;;;;;5056726;28;20456;-62
2022/09/25 16:49:04;;;;;;;3.97;1.10;;;;;;;;;;5064616;28;20044;-62
2022/09/25 16:51:31;;;;;;;1.80;0.90;;;;;;;;;;5077533;28;20083;-62
2022/09/25 16:54:00;;;;;;;2.65;0.68;;;;;;;;;;5067928;28;20545;-62
2022/09/25 16:56:28;;;;;;;3.53;1.33;;;;;;;;;;5066705;28;20250;-62
2022/09/25 16:58:54;;;;;;;2.55;0.77;;;;;;;;;;5054484;28;20041;-62
2022/09/25 17:01:22;;;;;;;1.63;0.98;;;;;;;;;;5074001;28;20061;-62
2022/09/25 17:03:48;;;;;;;2.60;1.00;;;;;;;;;;5060223;28;20075;-62
2022/09/25 17:06:15;;;;;;;3.25;1.50;;;;;;;;;;5085629;28;20580;-62
2022/09/25 17:08:41;;;;;;;4.97;1.05;;;;;;;;;;5067993;28;20048;-62
2022/09/25 17:11:08;;;;;;;4.15;0.85;;;;;;;;;;5058969;28;20402;-62
2022/09/25 17:13:34;;;;;;;3.70;1.50;;;;;;;;;;5069522;28;20087;-62
2022/09/25 17:16:00;;;;;;;3.00;0.90;;;;;;;;;;5067658;28;20504;-62
2022/09/25 17:18:27;;;;;;;3.53;1.00;;;;;;;;;;5070077;28;20056;-62
2022/09/25 17:20:54;;;;;;;1.95;0.88;;;;;;;;;;5069913;28;20029;-62
2022/09/25 17:23:21;;;;;;;6.32;1.30;;;;;;;;;;5069912;28;20079;-62
2022/09/25 17:25:59;;;;;;;4.30;1.05;;;;;;;;;;5068634;28;20055;-62
2022/09/25 17:28:26;;;;;;;2.78;0.77;;;;;;;;;;5052718;28;20049;-62
2022/09/25 17:30:52;;;;;;;2.10;0.80;;;;;;;;;;5056640;28;20410;-62
2022/09/25 17:33:20;;;;;;;2.08;1.25;;;;;;;;;;5063973;28;20084;-62
2022/09/25 17:36:05;;;;;;;2.28;0.90;;;;;;;;;;5065782;28;20520;-62
2022/09/25 17:38:32;;;;;;;2.17;1.02;;;;;;;;;;5054409;28;20138;-62
2022/09/25 17:41:00;;;;;;;3.05;0.70;;;;;;;;;;5062979;28;20102;-62
2022/09/25 17:43:26;;;;;;;5.65;0.90;;;;;;;;;;5055480;28;20131;-62
2022/09/25 17:45:54;;;;;;;1.38;1.00;;;;;;;;;;5062965;28;20044;-62
2022/09/25 17:48:24;;;;;;;1.40;0.70;;;;;;;;;;5047562;28;20533;-62
2022/09/25 17:50:51;;;;;;;1.63;0.70;;;;;;;;;;5052621;28;20052;-62
2022/09/25 17:53:18;;;;;;;2.53;0.85;;;;;;;;;;5052932;28;20106;-62
2022/09/25 17:55:46;;;;;;;1.55;0.93;;;;;;;;;;5048120;28;20128;-62
2022/09/25 17:58:13;;;;;;;4.72;1.00;;;;;;;;;;5051265;28;20049;-62
2022/09/25 18:00:39;;;;;;;3.08;0.90;;;;;;;;;;5044523;28;20049;-62
2022/09/25 18:03:05;;;;;;;1.70;0.90;;;;;;;;;;5048749;28;20521;-62
2022/09/25 18:05:31;;;;;;;1.40;1.10;;;;;;;;;;5050514;28;20123;-62
2022/09/25 18:07:58;;;;;;;2.85;1.48;;;;;;;;;;5058020;28;20041;-62
2022/09/25 18:10:27;;;;;;;3.17;1.65;;;;;;;;;;5056397;28;20099;-62
2022/09/25 18:12:59;;;;;;;3.80;1.73;;;;;;;;;;5051095;28;20048;-62
2022/09/25 18:15:26;;;;;;;1.63;0.98;;;;;;;;;;5052238;28;20494;-62
2022/09/25 18:17:52;;;;;;;3.35;0.93;;;;;;;;;;5046131;28;20060;-62